createdAt,value
2022-08-04T00:01:41.552Z,100.00
2022-08-04T00:04:34.710Z,100.00
2022-08-04T00:07:43.864Z,100.00
2022-08-04T00:10:13.642Z,100.00
2022-08-04T00:12:43.511Z,100.00
2022-08-04T00:15:14.943Z,100.00
2022-08-04T00:17:59.579Z,100.00
2022-08-04T00:20:30.384Z,100.00
2022-08-04T00:22:58.137Z,100.00
2022-08-04T00:25:25.670Z,100.00
2022-08-04T00:27:52.695Z,100.00
2022-08-04T00:30:19.408Z,100.00
2022-08-04T00:32:46.295Z,100.00
2022-08-04T00:35:17.380Z,100.00
2022-08-04T00:37:47.521Z,100.00
2022-08-04T00:40:19.789Z,100.00
2022-08-04T00:42:59.073Z,100.00
2022-08-04T00:46:10.905Z,100.00
2022-08-04T00:48:53.592Z,100.00
2022-08-04T00:51:33.789Z,100.00
2022-08-04T00:54:35.531Z,100.00
2022-08-04T00:57:34.669Z,100.00
2022-08-04T01:00:13.455Z,100.00
2022-08-04T01:03:04.768Z,100.00
2022-08-04T01:05:46.921Z,100.00
2022-08-04T01:08:16.103Z,100.00
2022-08-04T01:10:48.731Z,100.00
2022-08-04T01:13:34.257Z,100.00
2022-08-04T01:16:05.348Z,100.00
2022-08-04T01:18:44.185Z,100.00
2022-08-04T01:21:29.101Z,100.00
2022-08-04T01:24:14.300Z,100.00
2022-08-04T01:27:06.176Z,100.00
2022-08-04T01:29:49.223Z,100.00
2022-08-04T01:32:28.005Z,100.00
2022-08-04T01:35:05.482Z,100.00
2022-08-04T01:38:01.756Z,100.00
2022-08-04T01:40:45.575Z,100.00
2022-08-04T01:43:14.131Z,100.00
2022-08-04T01:45:41.893Z,100.00
2022-08-04T01:48:08.852Z,100.00
2022-08-04T01:50:37.078Z,100.00
2022-08-04T01:53:04.966Z,100.00
2022-08-04T01:55:55.102Z,100.00
2022-08-04T01:58:19.675Z,100.00
2022-08-04T02:01:05.106Z,100.00
2022-08-04T02:04:18.417Z,100.00
2022-08-04T02:06:36.737Z,100.00
2022-08-04T02:09:10.449Z,100.00
2022-08-04T02:11:40.203Z,100.00
2022-08-04T02:14:38.107Z,100.00
2022-08-04T02:17:19.860Z,100.00
2022-08-04T02:20:19.970Z,100.00
2022-08-04T02:23:01.462Z,100.00
2022-08-04T02:25:32.594Z,100.00
2022-08-04T02:28:30.072Z,100.00
2022-08-04T02:30:56.673Z,100.00
2022-08-04T02:33:35.641Z,100.00
2022-08-04T02:36:04.437Z,100.00
2022-08-04T02:38:36.869Z,100.00
2022-08-04T02:41:05.922Z,100.00
2022-08-04T02:43:50.848Z,100.00
2022-08-04T02:46:20.550Z,100.00
2022-08-04T02:48:48.857Z,100.00
2022-08-04T02:51:18.125Z,100.00
2022-08-04T02:53:47.052Z,100.00
2022-08-04T02:56:18.909Z,100.00
2022-08-04T02:58:49.236Z,100.00
2022-08-04T03:01:15.895Z,100.00
2022-08-04T03:03:59.572Z,100.00
2022-08-04T03:06:40.199Z,100.00
2022-08-04T03:09:54.843Z,100.00
2022-08-04T03:12:46.342Z,100.00
2022-08-04T03:15:30.054Z,100.00
2022-08-04T03:18:15.195Z,100.00
2022-08-04T03:21:08.060Z,100.00
2022-08-04T03:23:43.429Z,100.00
2022-08-04T03:26:25.076Z,100.00
2022-08-04T03:29:26.475Z,100.00
2022-08-04T03:32:25.468Z,100.00
2022-08-04T03:35:13.461Z,100.00
2022-08-04T03:37:58.868Z,100.00
2022-08-04T03:40:40.528Z,100.00
2022-08-04T03:43:57.785Z,100.00
2022-08-04T03:46:41.564Z,100.00
2022-08-04T03:49:48.412Z,100.00
2022-08-04T03:53:11.156Z,100.00
2022-08-04T03:56:02.145Z,100.00
2022-08-04T03:58:52.762Z,100.00
2022-08-04T04:01:19.298Z,100.00
2022-08-04T04:04:19.710Z,100.00
2022-08-04T04:06:54.154Z,100.00
2022-08-04T04:10:11.593Z,100.00
2022-08-04T04:12:56.267Z,100.00
2022-08-04T16:22:31.402Z,29.39
2022-08-04T16:24:58.360Z,31.41
2022-08-04T16:27:42.498Z,32.40
2022-08-04T16:30:14.455Z,31.84
2022-08-04T16:32:46.395Z,31.43
2022-08-04T16:35:21.437Z,31.37
2022-08-04T16:37:48.133Z,33.25
2022-08-04T16:40:38.179Z,32.65
2022-08-04T16:43:09.657Z,32.81
2022-08-04T16:45:51.225Z,31.99
2022-08-04T16:48:18.964Z,31.54
2022-08-04T16:50:49.347Z,32.71
2022-08-04T16:54:02.825Z,32.20
2022-08-04T16:56:05.976Z,31.42
2022-08-04T16:58:36.678Z,32.25
2022-08-04T17:01:32.945Z,32.94
2022-08-04T17:04:05.236Z,33.48
2022-08-04T17:06:40.582Z,33.05
2022-08-04T17:09:11.935Z,33.33
2022-08-04T17:11:38.707Z,33.37
2022-08-04T17:14:06.423Z,33.54
2022-08-04T17:16:35.641Z,34.20
2022-08-04T17:19:03.723Z,34.54
2022-08-04T17:21:32.637Z,34.74
2022-08-04T17:24:14.327Z,36.18
2022-08-04T17:26:52.032Z,35.54
2022-08-04T17:29:42.862Z,35.75
2022-08-04T17:32:19.780Z,35.80
2022-08-04T17:34:51.324Z,35.64
2022-08-04T17:37:41.282Z,35.88
2022-08-04T17:40:12.199Z,36.01
2022-08-04T17:42:40.456Z,36.02
2022-08-04T17:48:00.360Z,37.61
2022-08-04T17:50:34.842Z,37.81
2022-08-04T17:53:12.155Z,38.43
2022-08-04T17:55:47.126Z,39.36
2022-08-04T17:58:22.236Z,39.59
2022-08-04T18:01:23.738Z,38.87
2022-08-04T18:03:51.593Z,38.71
2022-08-04T18:06:20.970Z,38.48
2022-08-04T18:08:59.057Z,38.61
2022-08-04T18:11:41.795Z,38.40
2022-08-04T18:14:10.410Z,38.54
2022-08-04T18:16:46.600Z,39.46
2022-08-04T18:19:18.974Z,40.49
2022-08-04T18:22:00.012Z,41.79
2022-08-04T18:24:36.009Z,42.06
2022-08-04T18:27:24.077Z,42.67
2022-08-04T18:30:34.088Z,42.83
2022-08-04T18:33:04.295Z,43.08
2022-08-04T18:36:31.373Z,43.48
2022-08-04T18:38:22.366Z,44.15
2022-08-04T18:40:54.644Z,44.65
2022-08-04T18:43:28.174Z,44.79
2022-08-04T18:45:58.088Z,45.12
2022-08-04T18:48:36.135Z,45.71
2022-08-04T18:51:23.065Z,45.72
2022-08-04T18:53:58.333Z,46.22
2022-08-04T18:56:29.810Z,46.84
2022-08-04T18:59:01.883Z,46.44
2022-08-04T19:02:12.792Z,46.76
2022-08-04T19:04:33.248Z,47.68
2022-08-04T19:07:29.652Z,47.42
2022-08-04T19:09:53.770Z,47.51
2022-08-04T19:12:26.740Z,47.52
2022-08-04T19:14:58.806Z,48.50
2022-08-04T19:17:54.149Z,48.38
2022-08-04T19:20:25.741Z,48.84
2022-08-04T19:24:28.243Z,49.65
2022-08-04T19:26:03.872Z,49.93
2022-08-04T19:28:33.976Z,50.74
2022-08-04T19:31:01.862Z,51.48
2022-08-04T19:33:55.392Z,52.75
2022-08-04T19:36:17.148Z,53.37
2022-08-04T19:38:45.775Z,54.91
2022-08-04T19:41:18.228Z,54.71
2022-08-04T19:43:47.114Z,55.34
2022-08-04T19:46:17.736Z,55.64
2022-08-04T19:48:59.133Z,56.65
2022-08-04T19:51:33.380Z,59.38
2022-08-04T19:54:02.855Z,59.35
2022-08-04T19:56:40.151Z,59.72
2022-08-04T19:59:28.408Z,59.65
2022-08-04T20:02:03.466Z,60.17
2022-08-04T20:04:31.225Z,59.72
2022-08-04T20:07:02.716Z,60.72
2022-08-04T20:09:37.341Z,60.34
2022-08-04T20:12:05.221Z,60.00
2022-08-04T20:14:33.306Z,59.25
2022-08-04T20:17:10.592Z,59.14
2022-08-04T20:19:39.166Z,58.81
2022-08-04T20:22:50.912Z,58.78
2022-08-04T20:25:17.965Z,60.34
2022-08-04T20:28:00.272Z,60.03
2022-08-04T20:30:37.448Z,60.36
2022-08-04T20:33:06.918Z,62.15
2022-08-04T20:36:00.622Z,61.63
2022-08-04T20:38:33.606Z,60.97
2022-08-04T20:41:05.103Z,61.66
2022-08-04T20:43:35.417Z,61.45
2022-08-04T20:46:18.224Z,61.90
2022-08-04T20:48:51.614Z,64.53
2022-08-04T20:51:20.008Z,63.45
2022-08-04T20:53:59.064Z,63.40
2022-08-04T20:56:31.158Z,64.22
2022-08-04T20:59:07.901Z,65.10
2022-08-04T21:01:34.926Z,66.51
2022-08-04T21:04:28.020Z,67.52
2022-08-04T21:06:57.399Z,67.77
2022-08-04T21:09:26.542Z,66.58
2022-08-04T21:12:05.090Z,67.61
2022-08-04T21:14:31.775Z,66.84
2022-08-04T21:16:58.957Z,65.67
2022-08-04T21:19:27.120Z,66.49
2022-08-04T21:21:54.373Z,65.21
2022-08-04T21:24:25.883Z,66.05
2022-08-04T21:26:56.619Z,67.26
2022-08-04T21:32:13.109Z,66.59
2022-08-04T21:34:40.603Z,64.89
2022-08-04T21:37:11.183Z,64.78
2022-08-04T21:39:50.717Z,63.73
2022-08-04T21:42:29.425Z,64.73
2022-08-04T21:44:57.695Z,64.56
2022-08-04T21:47:24.490Z,63.72
2022-08-04T21:49:56.940Z,62.45
2022-08-04T21:52:24.551Z,62.77
2022-08-04T21:54:54.625Z,62.79
2022-08-04T21:57:24.666Z,63.45
2022-08-04T21:59:51.763Z,63.82
2022-08-04T22:02:18.457Z,64.94
2022-08-04T22:04:45.235Z,65.60
2022-08-04T22:07:12.519Z,66.74
2022-08-04T22:10:00.255Z,67.42
2022-08-04T22:12:29.859Z,67.51
2022-08-04T22:14:57.646Z,68.26
2022-08-04T22:17:29.485Z,68.08
2022-08-04T22:20:02.839Z,68.25
2022-08-04T22:22:30.097Z,68.97
2022-08-04T22:25:02.002Z,70.15
2022-08-04T22:27:58.058Z,71.20
2022-08-04T22:30:29.154Z,70.55
2022-08-04T22:33:00.396Z,71.22
2022-08-04T22:35:35.546Z,72.06
2022-08-04T22:38:21.322Z,71.27
2022-08-04T22:41:00.141Z,71.11
2022-08-04T22:43:32.602Z,71.03
2022-08-04T22:46:01.807Z,71.76
2022-08-04T22:48:32.111Z,73.16
2022-08-04T22:50:59.902Z,74.39
2022-08-04T22:53:26.729Z,73.48
2022-08-04T22:56:07.314Z,73.51
2022-08-04T22:58:45.841Z,73.00
2022-08-04T23:01:18.420Z,73.39
2022-08-04T23:03:51.052Z,75.84
2022-08-04T23:06:25.117Z,78.13
2022-08-04T23:08:52.709Z,77.87
2022-08-04T23:11:19.447Z,75.25
2022-08-04T23:13:46.038Z,75.33
2022-08-04T23:16:14.315Z,75.41
2022-08-04T23:18:42.362Z,76.59
2022-08-04T23:21:12.571Z,78.57
2022-08-04T23:23:45.489Z,80.03
2022-08-04T23:26:27.629Z,80.46
2022-08-04T23:28:58.147Z,80.08
2022-08-04T23:31:25.320Z,79.85
2022-08-04T23:34:08.792Z,81.02
2022-08-04T23:36:35.512Z,82.36
2022-08-04T23:39:05.616Z,83.26
2022-08-04T23:41:53.659Z,83.72
2022-08-04T23:44:24.839Z,85.68
2022-08-04T23:47:02.861Z,85.65
2022-08-04T23:49:43.888Z,84.63
2022-08-04T23:52:23.068Z,84.32
2022-08-04T23:54:55.214Z,84.96
2022-08-04T23:57:22.305Z,85.20
2022-08-04T23:59:54.142Z,84.27
